sensor_id;sensor_type;location;lat;lon;timestamp;temperature;humidity
40636;DHT22;26642;55.766;37.828;2022-12-07T00:01:13;8.00;65.30
40636;DHT22;26642;55.766;37.828;2022-12-07T00:03:41;8.00;65.20
40636;DHT22;26642;55.766;37.828;2022-12-07T00:06:09;8.00;65.30
40636;DHT22;26642;55.766;37.828;2022-12-07T00:08:36;8.00;65.20
40636;DHT22;26642;55.766;37.828;2022-12-07T00:11:13;8.00;65.10
40636;DHT22;26642;55.766;37.828;2022-12-07T00:13:40;7.90;64.70
40636;DHT22;26642;55.766;37.828;2022-12-07T00:16:13;8.00;64.30
40636;DHT22;26642;55.766;37.828;2022-12-07T00:18:39;7.90;63.80
40636;DHT22;26642;55.766;37.828;2022-12-07T00:21:15;7.90;63.50
40636;DHT22;26642;55.766;37.828;2022-12-07T00:23:43;7.90;63.30
40636;DHT22;26642;55.766;37.828;2022-12-07T00:26:21;7.90;63.20
40636;DHT22;26642;55.766;37.828;2022-12-07T00:28:48;7.90;63.10
40636;DHT22;26642;55.766;37.828;2022-12-07T00:31:16;7.90;63.00
40636;DHT22;26642;55.766;37.828;2022-12-07T00:33:42;7.90;62.90
40636;DHT22;26642;55.766;37.828;2022-12-07T00:36:12;7.90;62.80
40636;DHT22;26642;55.766;37.828;2022-12-07T00:38:38;7.90;62.80
40636;DHT22;26642;55.766;37.828;2022-12-07T00:41:16;7.80;62.70
40636;DHT22;26642;55.766;37.828;2022-12-07T00:43:44;7.90;62.70
40636;DHT22;26642;55.766;37.828;2022-12-07T00:46:11;7.90;62.60
40636;DHT22;26642;55.766;37.828;2022-12-07T00:48:38;7.90;62.60
40636;DHT22;26642;55.766;37.828;2022-12-07T00:51:04;7.90;62.60
40636;DHT22;26642;55.766;37.828;2022-12-07T00:53:33;7.90;62.50
40636;DHT22;26642;55.766;37.828;2022-12-07T00:56:05;7.90;62.60
40636;DHT22;26642;55.766;37.828;2022-12-07T00:58:31;7.80;62.50
40636;DHT22;26642;55.766;37.828;2022-12-07T01:01:00;7.90;62.50
40636;DHT22;26642;55.766;37.828;2022-12-07T01:03:27;7.90;62.40
40636;DHT22;26642;55.766;37.828;2022-12-07T01:05:54;7.90;62.40
40636;DHT22;26642;55.766;37.828;2022-12-07T01:08:21;7.80;62.30
40636;DHT22;26642;55.766;37.828;2022-12-07T01:10:47;7.80;62.40
40636;DHT22;26642;55.766;37.828;2022-12-07T01:13:13;7.80;62.30
40636;DHT22;26642;55.766;37.828;2022-12-07T01:15:43;7.80;62.90
40636;DHT22;26642;55.766;37.828;2022-12-07T01:18:10;7.80;62.30
40636;DHT22;26642;55.766;37.828;2022-12-07T01:20:36;7.80;62.30
40636;DHT22;26642;55.766;37.828;2022-12-07T01:23:02;7.80;62.30
40636;DHT22;26642;55.766;37.828;2022-12-07T01:25:28;7.80;62.20
40636;DHT22;26642;55.766;37.828;2022-12-07T01:27:54;7.80;62.10
40636;DHT22;26642;55.766;37.828;2022-12-07T01:30:20;7.80;62.10
40636;DHT22;26642;55.766;37.828;2022-12-07T01:32:46;7.80;62.10
40636;DHT22;26642;55.766;37.828;2022-12-07T01:35:12;7.80;62.10
40636;DHT22;26642;55.766;37.828;2022-12-07T01:37:39;7.80;62.00
40636;DHT22;26642;55.766;37.828;2022-12-07T01:40:06;7.80;61.90
40636;DHT22;26642;55.766;37.828;2022-12-07T01:42:33;7.70;61.90
40636;DHT22;26642;55.766;37.828;2022-12-07T01:47:47;7.70;61.70
40636;DHT22;26642;55.766;37.828;2022-12-07T01:50:16;7.70;61.70
40636;DHT22;26642;55.766;37.828;2022-12-07T01:52:44;7.70;61.60
40636;DHT22;26642;55.766;37.828;2022-12-07T01:55:12;7.80;61.70
40636;DHT22;26642;55.766;37.828;2022-12-07T01:57:42;7.70;61.70
40636;DHT22;26642;55.766;37.828;2022-12-07T02:00:10;7.80;61.60
40636;DHT22;26642;55.766;37.828;2022-12-07T02:02:47;7.70;61.60
40636;DHT22;26642;55.766;37.828;2022-12-07T02:05:14;7.70;61.60
40636;DHT22;26642;55.766;37.828;2022-12-07T02:07:41;7.70;61.60
40636;DHT22;26642;55.766;37.828;2022-12-07T02:10:24;7.70;61.60
40636;DHT22;26642;55.766;37.828;2022-12-07T02:13:06;7.70;61.40
40636;DHT22;26642;55.766;37.828;2022-12-07T02:26:46;7.70;61.10
40636;DHT22;26642;55.766;37.828;2022-12-07T02:29:25;7.60;61.00
40636;DHT22;26642;55.766;37.828;2022-12-07T02:32:15;7.60;61.00
40636;DHT22;26642;55.766;37.828;2022-12-07T02:38:04;7.60;60.80
40636;DHT22;26642;55.766;37.828;2022-12-07T02:40:29;7.60;60.80
40636;DHT22;26642;55.766;37.828;2022-12-07T02:43:12;7.60;60.70
40636;DHT22;26642;55.766;37.828;2022-12-07T02:45:41;7.60;60.70
40636;DHT22;26642;55.766;37.828;2022-12-07T02:48:10;7.60;60.60
40636;DHT22;26642;55.766;37.828;2022-12-07T02:50:37;7.60;60.60
40636;DHT22;26642;55.766;37.828;2022-12-07T02:53:03;7.60;60.70
40636;DHT22;26642;55.766;37.828;2022-12-07T02:55:38;7.60;60.70
40636;DHT22;26642;55.766;37.828;2022-12-07T03:00:52;7.60;60.80
40636;DHT22;26642;55.766;37.828;2022-12-07T03:03:20;7.60;60.80
40636;DHT22;26642;55.766;37.828;2022-12-07T03:08:58;7.60;61.10
40636;DHT22;26642;55.766;37.828;2022-12-07T03:11:40;7.60;61.20
40636;DHT22;26642;55.766;37.828;2022-12-07T03:14:30;7.60;61.80
40636;DHT22;26642;55.766;37.828;2022-12-07T03:17:00;7.60;61.20
40636;DHT22;26642;55.766;37.828;2022-12-07T03:19:29;7.60;61.00
40636;DHT22;26642;55.766;37.828;2022-12-07T03:22:00;7.50;60.90
40636;DHT22;26642;55.766;37.828;2022-12-07T03:24:32;7.60;60.90
40636;DHT22;26642;55.766;37.828;2022-12-07T03:27:21;7.50;60.80
40636;DHT22;26642;55.766;37.828;2022-12-07T03:32:35;7.50;60.50
40636;DHT22;26642;55.766;37.828;2022-12-07T03:35:11;7.50;60.60
40636;DHT22;26642;55.766;37.828;2022-12-07T03:37:59;7.50;60.50
40636;DHT22;26642;55.766;37.828;2022-12-07T03:43:07;7.50;60.10
40636;DHT22;26642;55.766;37.828;2022-12-07T03:45:44;7.50;59.90
40636;DHT22;26642;55.766;37.828;2022-12-07T03:48:20;7.50;60.00
40636;DHT22;26642;55.766;37.828;2022-12-07T03:51:01;7.50;60.00
40636;DHT22;26642;55.766;37.828;2022-12-07T03:56:33;7.50;60.00
40636;DHT22;26642;55.766;37.828;2022-12-07T03:59:00;7.50;60.00
40636;DHT22;26642;55.766;37.828;2022-12-07T04:01:26;7.50;60.00
40636;DHT22;26642;55.766;37.828;2022-12-07T04:03:53;7.50;60.10
40636;DHT22;26642;55.766;37.828;2022-12-07T04:06:18;7.50;59.90
40636;DHT22;26642;55.766;37.828;2022-12-07T04:08:44;7.50;59.80
40636;DHT22;26642;55.766;37.828;2022-12-07T04:11:10;7.40;59.90
40636;DHT22;26642;55.766;37.828;2022-12-07T04:13:37;7.40;59.80
40636;DHT22;26642;55.766;37.828;2022-12-07T04:16:23;7.40;60.00
40636;DHT22;26642;55.766;37.828;2022-12-07T04:18:48;7.40;60.00
40636;DHT22;26642;55.766;37.828;2022-12-07T04:21:14;7.40;59.80
40636;DHT22;26642;55.766;37.828;2022-12-07T04:23:40;7.40;59.80
40636;DHT22;26642;55.766;37.828;2022-12-07T04:26:06;7.40;59.80
40636;DHT22;26642;55.766;37.828;2022-12-07T04:28:32;7.40;59.80
40636;DHT22;26642;55.766;37.828;2022-12-07T04:30:58;7.40;59.70
40636;DHT22;26642;55.766;37.828;2022-12-07T04:33:24;7.40;59.50
40636;DHT22;26642;55.766;37.828;2022-12-07T04:35:50;7.40;59.40
40636;DHT22;26642;55.766;37.828;2022-12-07T04:38:16;7.30;59.20
40636;DHT22;26642;55.766;37.828;2022-12-07T04:40:41;7.40;59.10
40636;DHT22;26642;55.766;37.828;2022-12-07T04:43:07;7.30;59.10
40636;DHT22;26642;55.766;37.828;2022-12-07T04:45:33;7.40;59.10
40636;DHT22;26642;55.766;37.828;2022-12-07T04:47:59;7.40;59.20
40636;DHT22;26642;55.766;37.828;2022-12-07T04:50:25;7.30;59.20
40636;DHT22;26642;55.766;37.828;2022-12-07T04:52:51;7.30;59.30
40636;DHT22;26642;55.766;37.828;2022-12-07T04:55:17;7.40;59.30
40636;DHT22;26642;55.766;37.828;2022-12-07T04:57:43;7.30;59.50
40636;DHT22;26642;55.766;37.828;2022-12-07T05:00:09;7.30;59.20
40636;DHT22;26642;55.766;37.828;2022-12-07T05:02:35;7.30;59.30
40636;DHT22;26642;55.766;37.828;2022-12-07T05:05:01;7.30;59.30
40636;DHT22;26642;55.766;37.828;2022-12-07T05:07:27;7.30;59.30
40636;DHT22;26642;55.766;37.828;2022-12-07T05:09:53;7.30;59.40
40636;DHT22;26642;55.766;37.828;2022-12-07T05:12:19;7.30;59.20
40636;DHT22;26642;55.766;37.828;2022-12-07T05:14:44;7.30;59.00
40636;DHT22;26642;55.766;37.828;2022-12-07T05:17:10;7.30;59.00
40636;DHT22;26642;55.766;37.828;2022-12-07T05:19:37;7.30;59.10
40636;DHT22;26642;55.766;37.828;2022-12-07T05:22:03;7.30;59.00
40636;DHT22;26642;55.766;37.828;2022-12-07T05:24:29;7.30;58.90
40636;DHT22;26642;55.766;37.828;2022-12-07T05:26:54;7.30;58.70
40636;DHT22;26642;55.766;37.828;2022-12-07T05:29:20;7.30;58.70
40636;DHT22;26642;55.766;37.828;2022-12-07T05:31:46;7.30;58.70
40636;DHT22;26642;55.766;37.828;2022-12-07T05:34:12;7.30;58.60
40636;DHT22;26642;55.766;37.828;2022-12-07T05:36:38;7.20;58.60
40636;DHT22;26642;55.766;37.828;2022-12-07T05:39:04;7.30;58.60
40636;DHT22;26642;55.766;37.828;2022-12-07T05:41:30;7.20;58.60
40636;DHT22;26642;55.766;37.828;2022-12-07T05:44:15;7.30;58.50
40636;DHT22;26642;55.766;37.828;2022-12-07T05:46:41;7.30;58.50
40636;DHT22;26642;55.766;37.828;2022-12-07T05:49:07;7.20;58.60
40636;DHT22;26642;55.766;37.828;2022-12-07T05:51:33;7.30;58.50
40636;DHT22;26642;55.766;37.828;2022-12-07T05:53:59;7.30;58.60
40636;DHT22;26642;55.766;37.828;2022-12-07T05:56:25;7.20;58.60
40636;DHT22;26642;55.766;37.828;2022-12-07T05:58:52;7.20;58.60
40636;DHT22;26642;55.766;37.828;2022-12-07T06:01:36;7.20;58.60
40636;DHT22;26642;55.766;37.828;2022-12-07T06:04:02;7.30;58.70
40636;DHT22;26642;55.766;37.828;2022-12-07T06:06:28;7.30;58.80
40636;DHT22;26642;55.766;37.828;2022-12-07T06:08:54;7.30;58.90
40636;DHT22;26642;55.766;37.828;2022-12-07T06:11:20;7.30;58.90
40636;DHT22;26642;55.766;37.828;2022-12-07T06:14:05;7.30;58.90
40636;DHT22;26642;55.766;37.828;2022-12-07T06:16:31;7.30;58.90
40636;DHT22;26642;55.766;37.828;2022-12-07T06:18:57;7.30;58.70
40636;DHT22;26642;55.766;37.828;2022-12-07T06:21:26;7.20;58.60
40636;DHT22;26642;55.766;37.828;2022-12-07T06:23:52;7.30;58.70
40636;DHT22;26642;55.766;37.828;2022-12-07T06:26:18;7.30;58.70
40636;DHT22;26642;55.766;37.828;2022-12-07T06:28:44;7.30;58.60
40636;DHT22;26642;55.766;37.828;2022-12-07T06:31:10;7.30;58.50
40636;DHT22;26642;55.766;37.828;2022-12-07T06:33:36;7.30;58.40
40636;DHT22;26642;55.766;37.828;2022-12-07T06:36:02;7.30;58.50
40636;DHT22;26642;55.766;37.828;2022-12-07T06:38:28;7.30;58.70
40636;DHT22;26642;55.766;37.828;2022-12-07T06:40:54;7.30;58.40
40636;DHT22;26642;55.766;37.828;2022-12-07T06:43:20;7.30;58.30
40636;DHT22;26642;55.766;37.828;2022-12-07T06:45:46;7.30;58.30
40636;DHT22;26642;55.766;37.828;2022-12-07T06:48:12;7.30;58.10
40636;DHT22;26642;55.766;37.828;2022-12-07T06:50:37;7.30;58.00
40636;DHT22;26642;55.766;37.828;2022-12-07T06:53:03;7.30;58.10
40636;DHT22;26642;55.766;37.828;2022-12-07T06:55:29;7.30;58.10
40636;DHT22;26642;55.766;37.828;2022-12-07T06:57:55;7.30;57.90
40636;DHT22;26642;55.766;37.828;2022-12-07T07:00:21;7.30;58.00
40636;DHT22;26642;55.766;37.828;2022-12-07T07:02:47;7.30;58.00
40636;DHT22;26642;55.766;37.828;2022-12-07T07:05:13;7.30;57.90
40636;DHT22;26642;55.766;37.828;2022-12-07T07:07:39;7.30;57.80
40636;DHT22;26642;55.766;37.828;2022-12-07T07:10:06;7.30;57.80
40636;DHT22;26642;55.766;37.828;2022-12-07T07:12:32;7.30;57.80
40636;DHT22;26642;55.766;37.828;2022-12-07T07:14:57;7.30;57.90
40636;DHT22;26642;55.766;37.828;2022-12-07T07:17:23;7.30;57.80
40636;DHT22;26642;55.766;37.828;2022-12-07T07:19:49;7.30;57.80
40636;DHT22;26642;55.766;37.828;2022-12-07T07:22:15;7.40;57.90
40636;DHT22;26642;55.766;37.828;2022-12-07T07:24:41;7.40;57.90
40636;DHT22;26642;55.766;37.828;2022-12-07T07:27:07;7.30;57.90
40636;DHT22;26642;55.766;37.828;2022-12-07T07:29:33;7.30;57.90
40636;DHT22;26642;55.766;37.828;2022-12-07T07:32:00;7.40;57.80
40636;DHT22;26642;55.766;37.828;2022-12-07T07:34:26;7.40;57.80
40636;DHT22;26642;55.766;37.828;2022-12-07T07:36:52;7.40;57.90
40636;DHT22;26642;55.766;37.828;2022-12-07T07:39:18;7.40;57.80
40636;DHT22;26642;55.766;37.828;2022-12-07T07:41:44;7.40;57.70
40636;DHT22;26642;55.766;37.828;2022-12-07T07:44:13;7.50;57.80
40636;DHT22;26642;55.766;37.828;2022-12-07T07:46:39;7.50;57.80
40636;DHT22;26642;55.766;37.828;2022-12-07T07:49:05;7.50;57.70
40636;DHT22;26642;55.766;37.828;2022-12-07T07:51:31;7.60;57.80
40636;DHT22;26642;55.766;37.828;2022-12-07T07:53:57;7.60;57.70
40636;DHT22;26642;55.766;37.828;2022-12-07T07:56:23;7.70;60.90
40636;DHT22;26642;55.766;37.828;2022-12-07T07:58:52;7.90;61.80
40636;DHT22;26642;55.766;37.828;2022-12-07T08:01:18;8.10;62.20
40636;DHT22;26642;55.766;37.828;2022-12-07T08:03:46;8.20;61.40
40636;DHT22;26642;55.766;37.828;2022-12-07T08:06:13;8.40;59.20
40636;DHT22;26642;55.766;37.828;2022-12-07T08:08:39;8.50;58.40
40636;DHT22;26642;55.766;37.828;2022-12-07T08:11:05;8.70;57.80
40636;DHT22;26642;55.766;37.828;2022-12-07T08:13:32;8.80;56.90
40636;DHT22;26642;55.766;37.828;2022-12-07T08:15:58;8.90;56.50
40636;DHT22;26642;55.766;37.828;2022-12-07T08:18:24;8.90;55.90
40636;DHT22;26642;55.766;37.828;2022-12-07T08:20:50;9.00;55.00
40636;DHT22;26642;55.766;37.828;2022-12-07T08:23:16;9.10;55.80
40636;DHT22;26642;55.766;37.828;2022-12-07T08:25:42;9.10;56.60
40636;DHT22;26642;55.766;37.828;2022-12-07T08:28:08;9.20;56.60
40636;DHT22;26642;55.766;37.828;2022-12-07T08:30:34;9.20;56.60
40636;DHT22;26642;55.766;37.828;2022-12-07T08:33:00;9.10;56.60
40636;DHT22;26642;55.766;37.828;2022-12-07T08:35:26;9.10;56.50
40636;DHT22;26642;55.766;37.828;2022-12-07T08:37:52;9.10;56.30
40636;DHT22;26642;55.766;37.828;2022-12-07T08:40:18;9.10;55.80
40636;DHT22;26642;55.766;37.828;2022-12-07T08:42:51;9.10;55.40
40636;DHT22;26642;55.766;37.828;2022-12-07T08:45:17;9.00;54.70
40636;DHT22;26642;55.766;37.828;2022-12-07T08:50:13;9.00;54.10
40636;DHT22;26642;55.766;37.828;2022-12-07T08:52:40;9.00;53.90
40636;DHT22;26642;55.766;37.828;2022-12-07T08:55:09;9.00;53.70
40636;DHT22;26642;55.766;37.828;2022-12-07T08:57:37;9.00;53.70
40636;DHT22;26642;55.766;37.828;2022-12-07T09:00:04;8.90;53.70
40636;DHT22;26642;55.766;37.828;2022-12-07T09:02:31;8.90;53.60
40636;DHT22;26642;55.766;37.828;2022-12-07T09:04:57;8.90;53.60
40636;DHT22;26642;55.766;37.828;2022-12-07T09:07:24;8.80;53.50
40636;DHT22;26642;55.766;37.828;2022-12-07T09:09:50;8.80;53.40
40636;DHT22;26642;55.766;37.828;2022-12-07T09:12:16;8.80;53.40
40636;DHT22;26642;55.766;37.828;2022-12-07T09:14:42;8.80;53.20
40636;DHT22;26642;55.766;37.828;2022-12-07T09:17:11;8.80;53.20
40636;DHT22;26642;55.766;37.828;2022-12-07T09:19:37;8.70;53.10
40636;DHT22;26642;55.766;37.828;2022-12-07T09:22:04;8.70;53.30
40636;DHT22;26642;55.766;37.828;2022-12-07T09:24:31;8.70;53.20
40636;DHT22;26642;55.766;37.828;2022-12-07T09:26:57;8.70;53.20
40636;DHT22;26642;55.766;37.828;2022-12-07T09:29:24;8.70;53.20
40636;DHT22;26642;55.766;37.828;2022-12-07T09:31:51;8.60;53.10
40636;DHT22;26642;55.766;37.828;2022-12-07T09:34:17;8.60;53.50
40636;DHT22;26642;55.766;37.828;2022-12-07T09:36:43;8.60;53.40
40636;DHT22;26642;55.766;37.828;2022-12-07T09:39:10;8.60;53.30
40636;DHT22;26642;55.766;37.828;2022-12-07T09:41:44;8.60;52.90
40636;DHT22;26642;55.766;37.828;2022-12-07T09:44:25;8.60;52.70
40636;DHT22;26642;55.766;37.828;2022-12-07T09:46:52;8.50;52.60
40636;DHT22;26642;55.766;37.828;2022-12-07T09:49:23;8.50;53.30
40636;DHT22;26642;55.766;37.828;2022-12-07T09:52:17;8.50;52.70
40636;DHT22;26642;55.766;37.828;2022-12-07T09:54:47;8.50;52.60
40636;DHT22;26642;55.766;37.828;2022-12-07T09:57:14;8.50;52.60
40636;DHT22;26642;55.766;37.828;2022-12-07T09:59:41;8.40;52.60
40636;DHT22;26642;55.766;37.828;2022-12-07T10:05:00;8.40;52.50
40636;DHT22;26642;55.766;37.828;2022-12-07T10:07:26;8.40;52.30
40636;DHT22;26642;55.766;37.828;2022-12-07T10:09:52;8.40;52.30
40636;DHT22;26642;55.766;37.828;2022-12-07T10:12:18;8.40;52.20
40636;DHT22;26642;55.766;37.828;2022-12-07T10:15:04;8.40;52.30
40636;DHT22;26642;55.766;37.828;2022-12-07T10:17:37;8.30;52.40
40636;DHT22;26642;55.766;37.828;2022-12-07T10:22:38;8.30;52.20
40636;DHT22;26642;55.766;37.828;2022-12-07T10:25:31;8.30;52.10
40636;DHT22;26642;55.766;37.828;2022-12-07T10:30:53;8.30;52.00
40636;DHT22;26642;55.766;37.828;2022-12-07T10:35:57;8.20;51.80
40636;DHT22;26642;55.766;37.828;2022-12-07T10:38:25;8.20;51.70
40636;DHT22;26642;55.766;37.828;2022-12-07T10:41:06;8.20;51.70
40636;DHT22;26642;55.766;37.828;2022-12-07T10:43:32;8.20;51.90
40636;DHT22;26642;55.766;37.828;2022-12-07T10:56:16;8.20;51.90
40636;DHT22;26642;55.766;37.828;2022-12-07T11:07:28;8.20;51.80
40636;DHT22;26642;55.766;37.828;2022-12-07T11:10:08;8.20;51.80
40636;DHT22;26642;55.766;37.828;2022-12-07T11:15:24;8.10;51.40
40636;DHT22;26642;55.766;37.828;2022-12-07T11:20:49;8.10;51.20
40636;DHT22;26642;55.766;37.828;2022-12-07T11:34:08;8.10;51.10
40636;DHT22;26642;55.766;37.828;2022-12-07T11:36:44;8.10;51.00
40636;DHT22;26642;55.766;37.828;2022-12-07T11:41:56;8.00;51.40
40636;DHT22;26642;55.766;37.828;2022-12-07T11:47:03;8.00;51.10
40636;DHT22;26642;55.766;37.828;2022-12-07T11:49:42;8.00;51.00
40636;DHT22;26642;55.766;37.828;2022-12-07T11:52:30;8.00;51.00
40636;DHT22;26642;55.766;37.828;2022-12-07T11:54:59;8.00;51.00
40636;DHT22;26642;55.766;37.828;2022-12-07T11:57:54;8.00;51.30
40636;DHT22;26642;55.766;37.828;2022-12-07T12:00:23;8.00;51.30
40636;DHT22;26642;55.766;37.828;2022-12-07T12:05:25;7.90;51.00
40636;DHT22;26642;55.766;37.828;2022-12-07T12:08:03;7.90;50.80
40636;DHT22;26642;55.766;37.828;2022-12-07T12:11:05;7.90;51.10
40636;DHT22;26642;55.766;37.828;2022-12-07T12:14:01;7.90;51.20
40636;DHT22;26642;55.766;37.828;2022-12-07T12:19:25;7.90;51.40
40636;DHT22;26642;55.766;37.828;2022-12-07T12:22:27;7.90;51.40
40636;DHT22;26642;55.766;37.828;2022-12-07T12:24:55;7.90;51.50
40636;DHT22;26642;55.766;37.828;2022-12-07T12:27:29;7.80;51.40
40636;DHT22;26642;55.766;37.828;2022-12-07T12:29:59;7.80;51.30
40636;DHT22;26642;55.766;37.828;2022-12-07T12:32:39;7.80;51.20
40636;DHT22;26642;55.766;37.828;2022-12-07T12:35:22;7.80;51.10
40636;DHT22;26642;55.766;37.828;2022-12-07T12:37:53;7.80;51.20
40636;DHT22;26642;55.766;37.828;2022-12-07T12:42:55;7.70;51.00
40636;DHT22;26642;55.766;37.828;2022-12-07T12:45:28;7.70;50.90
40636;DHT22;26642;55.766;37.828;2022-12-07T12:53:19;7.70;50.90
40636;DHT22;26642;55.766;37.828;2022-12-07T12:55:54;7.70;51.00
40636;DHT22;26642;55.766;37.828;2022-12-07T12:58:30;7.70;51.00
40636;DHT22;26642;55.766;37.828;2022-12-07T13:04:38;7.60;51.20
40636;DHT22;26642;55.766;37.828;2022-12-07T13:07:08;7.60;51.30
40636;DHT22;26642;55.766;37.828;2022-12-07T13:09:35;7.60;51.10
40636;DHT22;26642;55.766;37.828;2022-12-07T13:12:04;7.60;51.20
40636;DHT22;26642;55.766;37.828;2022-12-07T13:14:52;7.60;51.30
40636;DHT22;26642;55.766;37.828;2022-12-07T13:27:40;7.50;51.60
40636;DHT22;26642;55.766;37.828;2022-12-07T13:30:24;7.50;51.70
40636;DHT22;26642;55.766;37.828;2022-12-07T13:32:56;7.50;51.80
40636;DHT22;26642;55.766;37.828;2022-12-07T13:35:37;7.40;51.60
40636;DHT22;26642;55.766;37.828;2022-12-07T13:38:13;7.40;51.70
40636;DHT22;26642;55.766;37.828;2022-12-07T13:40:40;7.40;51.60
40636;DHT22;26642;55.766;37.828;2022-12-07T13:43:13;7.40;51.90
40636;DHT22;26642;55.766;37.828;2022-12-07T13:45:41;7.40;51.90
40636;DHT22;26642;55.766;37.828;2022-12-07T13:50:58;7.40;52.60
40636;DHT22;26642;55.766;37.828;2022-12-07T13:53:24;7.40;53.10
40636;DHT22;26642;55.766;37.828;2022-12-07T13:55:53;7.30;53.10
40636;DHT22;26642;55.766;37.828;2022-12-07T13:58:19;7.30;53.10
40636;DHT22;26642;55.766;37.828;2022-12-07T14:00:45;7.30;52.70
40636;DHT22;26642;55.766;37.828;2022-12-07T14:05:39;7.30;52.20
40636;DHT22;26642;55.766;37.828;2022-12-07T14:08:25;7.20;52.10
40636;DHT22;26642;55.766;37.828;2022-12-07T14:15:53;7.20;52.10
40636;DHT22;26642;55.766;37.828;2022-12-07T14:23:34;7.20;51.90
40636;DHT22;26642;55.766;37.828;2022-12-07T14:26:15;7.10;51.90
40636;DHT22;26642;55.766;37.828;2022-12-07T14:28:43;7.10;51.80
40636;DHT22;26642;55.766;37.828;2022-12-07T14:31:21;7.10;51.90
40636;DHT22;26642;55.766;37.828;2022-12-07T14:33:48;7.10;51.90
40636;DHT22;26642;55.766;37.828;2022-12-07T14:36:14;7.10;52.10
40636;DHT22;26642;55.766;37.828;2022-12-07T14:38:40;7.00;52.00
40636;DHT22;26642;55.766;37.828;2022-12-07T14:41:13;7.00;52.20
40636;DHT22;26642;55.766;37.828;2022-12-07T14:43:59;7.00;52.30
40636;DHT22;26642;55.766;37.828;2022-12-07T14:46:25;7.00;52.60
40636;DHT22;26642;55.766;37.828;2022-12-07T14:48:51;7.00;52.70
40636;DHT22;26642;55.766;37.828;2022-12-07T14:51:16;6.90;52.50
40636;DHT22;26642;55.766;37.828;2022-12-07T14:53:46;7.00;52.50
40636;DHT22;26642;55.766;37.828;2022-12-07T14:56:13;6.90;52.80
40636;DHT22;26642;55.766;37.828;2022-12-07T14:58:40;6.90;52.80
40636;DHT22;26642;55.766;37.828;2022-12-07T15:01:06;6.90;52.60
40636;DHT22;26642;55.766;37.828;2022-12-07T15:03:32;6.90;52.60
40636;DHT22;26642;55.766;37.828;2022-12-07T15:06:00;6.90;52.60
40636;DHT22;26642;55.766;37.828;2022-12-07T15:08:26;6.90;52.60
40636;DHT22;26642;55.766;37.828;2022-12-07T15:10:52;6.90;52.70
40636;DHT22;26642;55.766;37.828;2022-12-07T15:13:18;6.80;52.80
40636;DHT22;26642;55.766;37.828;2022-12-07T15:16:02;6.80;52.80
40636;DHT22;26642;55.766;37.828;2022-12-07T15:18:29;6.80;53.40
40636;DHT22;26642;55.766;37.828;2022-12-07T15:20:55;6.80;53.00
40636;DHT22;26642;55.766;37.828;2022-12-07T15:23:20;6.80;53.00
40636;DHT22;26642;55.766;37.828;2022-12-07T15:25:48;6.80;52.90
40636;DHT22;26642;55.766;37.828;2022-12-07T15:28:14;6.80;53.00
40636;DHT22;26642;55.766;37.828;2022-12-07T15:30:42;6.80;52.90
40636;DHT22;26642;55.766;37.828;2022-12-07T15:33:11;6.80;52.90
40636;DHT22;26642;55.766;37.828;2022-12-07T15:35:42;6.70;52.80
40636;DHT22;26642;55.766;37.828;2022-12-07T15:38:08;6.70;52.90
40636;DHT22;26642;55.766;37.828;2022-12-07T15:40:34;6.70;53.10
40636;DHT22;26642;55.766;37.828;2022-12-07T15:43:01;6.70;53.30
40636;DHT22;26642;55.766;37.828;2022-12-07T15:45:27;6.70;53.50
40636;DHT22;26642;55.766;37.828;2022-12-07T15:47:52;6.70;53.20
40636;DHT22;26642;55.766;37.828;2022-12-07T15:50:21;6.70;53.20
40636;DHT22;26642;55.766;37.828;2022-12-07T15:52:48;6.70;53.20
40636;DHT22;26642;55.766;37.828;2022-12-07T15:55:14;6.70;53.00
40636;DHT22;26642;55.766;37.828;2022-12-07T15:57:40;6.70;53.40
40636;DHT22;26642;55.766;37.828;2022-12-07T16:00:08;6.60;53.60
40636;DHT22;26642;55.766;37.828;2022-12-07T16:02:37;6.60;53.70
40636;DHT22;26642;55.766;37.828;2022-12-07T16:05:03;6.60;53.70
40636;DHT22;26642;55.766;37.828;2022-12-07T16:07:29;6.60;53.80
40636;DHT22;26642;55.766;37.828;2022-12-07T16:09:55;6.60;53.90
40636;DHT22;26642;55.766;37.828;2022-12-07T16:12:21;6.60;53.90
40636;DHT22;26642;55.766;37.828;2022-12-07T16:14:47;6.60;54.10
40636;DHT22;26642;55.766;37.828;2022-12-07T16:17:13;6.60;53.80
40636;DHT22;26642;55.766;37.828;2022-12-07T16:19:39;6.60;53.90
40636;DHT22;26642;55.766;37.828;2022-12-07T16:22:05;6.60;53.40
40636;DHT22;26642;55.766;37.828;2022-12-07T16:24:31;6.60;53.70
40636;DHT22;26642;55.766;37.828;2022-12-07T16:26:58;6.50;53.60
40636;DHT22;26642;55.766;37.828;2022-12-07T16:29:24;6.50;53.50
40636;DHT22;26642;55.766;37.828;2022-12-07T16:31:51;6.50;53.60
40636;DHT22;26642;55.766;37.828;2022-12-07T16:34:17;6.50;53.60
40636;DHT22;26642;55.766;37.828;2022-12-07T16:36:44;6.50;53.60
40636;DHT22;26642;55.766;37.828;2022-12-07T16:39:10;6.50;53.90
40636;DHT22;26642;55.766;37.828;2022-12-07T16:41:36;6.50;53.90
40636;DHT22;26642;55.766;37.828;2022-12-07T16:44:06;6.50;54.10
40636;DHT22;26642;55.766;37.828;2022-12-07T16:46:33;6.50;54.30
40636;DHT22;26642;55.766;37.828;2022-12-07T16:49:00;6.50;54.30
40636;DHT22;26642;55.766;37.828;2022-12-07T16:51:27;6.50;53.90
40636;DHT22;26642;55.766;37.828;2022-12-07T16:53:53;6.50;54.00
40636;DHT22;26642;55.766;37.828;2022-12-07T16:56:19;6.40;54.10
40636;DHT22;26642;55.766;37.828;2022-12-07T16:58:46;6.40;54.00
40636;DHT22;26642;55.766;37.828;2022-12-07T17:01:21;6.40;54.10
40636;DHT22;26642;55.766;37.828;2022-12-07T17:03:53;6.40;54.10
40636;DHT22;26642;55.766;37.828;2022-12-07T17:06:21;6.40;54.40
40636;DHT22;26642;55.766;37.828;2022-12-07T17:08:48;6.40;54.40
40636;DHT22;26642;55.766;37.828;2022-12-07T17:11:26;6.40;54.10
40636;DHT22;26642;55.766;37.828;2022-12-07T17:13:53;6.40;53.90
40636;DHT22;26642;55.766;37.828;2022-12-07T17:16:37;6.40;54.00
40636;DHT22;26642;55.766;37.828;2022-12-07T17:19:05;6.40;53.80
40636;DHT22;26642;55.766;37.828;2022-12-07T17:21:31;6.40;53.90
40636;DHT22;26642;55.766;37.828;2022-12-07T17:24:02;6.40;53.80
40636;DHT22;26642;55.766;37.828;2022-12-07T17:26:29;6.30;53.80
40636;DHT22;26642;55.766;37.828;2022-12-07T17:28:57;6.40;54.00
40636;DHT22;26642;55.766;37.828;2022-12-07T17:31:24;6.40;53.90
40636;DHT22;26642;55.766;37.828;2022-12-07T17:33:50;6.30;53.90
40636;DHT22;26642;55.766;37.828;2022-12-07T17:36:19;6.30;53.90
40636;DHT22;26642;55.766;37.828;2022-12-07T17:38:46;6.40;53.80
40636;DHT22;26642;55.766;37.828;2022-12-07T17:41:19;6.30;54.30
40636;DHT22;26642;55.766;37.828;2022-12-07T17:44:06;6.40;54.60
40636;DHT22;26642;55.766;37.828;2022-12-07T17:46:32;6.30;54.70
40636;DHT22;26642;55.766;37.828;2022-12-07T17:48:59;6.40;54.80
40636;DHT22;26642;55.766;37.828;2022-12-07T17:51:25;6.40;55.00